Terminal Aerodrome Forecast
Issued by NWS

Home | Current Version | Previous Version | Text Only | Print | Product List | Glossary On
Versions: 1 2 3 4 5 6 7 8 9 10 11 12 13 14 15 16 17 18
448
FTUS41 KPBZ 230520
TAFBVI
TAF
KBVI 230520Z 2306/2406 33005KT P6SM BKN025
     FM230800 33005KT P6SM BKN015
     FM231600 34006KT P6SM SCT050
      AMD NOT SKED=

USA.gov is the U.S. government's official web portal to all federal, state and local government web resources and services.